In Rescue
 
Open Full Screen Window  High Contrast Mode
July 23, 2019 12:40 AM CDT
Weather Information
Wind Direction
  ---
Wind Speed
  00 kt (0 mph)
Wind Gust
  00 kt (0 mph)
Altimeter
30.25 in
Visibility
10 SM
Temperature
12° C
54° F
Dewpoint
08° C
46° F
Humidity
77%
1hr Rain Fall
00.00 in.
24hr Rain Fall
00.00 in.
Sky Condition
Clear
VFR

METAR KFSE 230540Z AUTO 00000KT 10SM CLR 12/08 A3025 RMK AO2

FAA Disclaimer: The data displayed is for advisory purposes only and is not to be used for flight planning or operations.